Time;durP1;ratioP1;P1;durP2;ratioP2;P2;SDS_P1;SDS_P2;PMS_P1;PMS_P2;Temp;Humidity;BMP_temperature;BMP_pressure;BME280_temperature;BME280_humidity;BME280_pressure;Samples;Min_cycle;Max_cycle;Signal;HPM_P1;HPM_P2
2022/05/10 00:02:12;;;;;;;1.70;1.13;;;;;;;11.12;37.72;99732.13;5015630;28;20106;-66
2022/05/10 00:04:40;;;;;;;2.83;1.10;;;;;;;11.04;38.04;99725.94;5015331;28;20188;-66
2022/05/10 00:07:05;;;;;;;1.50;1.10;;;;;;;10.92;37.84;99722.72;4998752;28;20381;-66
2022/05/10 00:09:31;;;;;;;4.45;1.10;;;;;;;11.01;37.86;99729.72;5031909;28;20041;-66
2022/05/10 00:11:58;;;;;;;1.30;1.08;;;;;;;11.12;37.69;99736.59;5014843;28;20053;-66
2022/05/10 00:14:29;;;;;;;3.78;1.17;;;;;;;11.11;37.76;99733.13;5031122;28;20041;-66
2022/05/10 00:17:00;;;;;;;3.10;1.20;;;;;;;11.13;37.77;99722.34;5014681;28;20045;-67
2022/05/10 00:19:27;;;;;;;1.38;0.90;;;;;;;11.04;37.75;99724.09;5014867;28;20429;-66
2022/05/10 00:21:53;;;;;;;3.38;1.17;;;;;;;10.99;37.68;99726.41;5014840;28;20073;-66
2022/05/10 00:24:20;;;;;;;2.53;1.10;;;;;;;10.92;37.79;99719.22;5031907;28;20038;-66
2022/05/10 00:26:48;;;;;;;1.77;1.10;;;;;;;10.93;37.85;99720.91;5015175;28;20045;-66
2022/05/10 00:29:14;;;;;;;5.03;1.10;;;;;;;10.93;37.66;99727.03;5014904;28;20088;-66
2022/05/10 00:31:40;;;;;;;2.05;1.10;;;;;;;10.83;37.58;99696.25;5032242;28;20049;-66
2022/05/10 00:34:05;;;;;;;1.63;1.10;;;;;;;10.92;37.53;99711.25;5014471;28;20497;-66
2022/05/10 00:36:34;;;;;;;1.52;0.93;;;;;;;10.98;37.41;99711.44;5014638;28;20041;-65
2022/05/10 00:38:59;;;;;;;3.15;0.98;;;;;;;10.92;37.45;99716.56;5014483;28;20048;-65
2022/05/10 00:41:56;;;;;;;2.03;1.20;;;;;;;11.13;37.32;99706.38;5032085;28;20053;-66
2022/05/10 00:44:39;;;;;;;2.35;1.15;;;;;;;11.16;37.19;99708.72;5013395;28;20053;-66
2022/05/10 00:47:28;;;;;;;7.80;1.20;;;;;;;11.13;37.07;99709.84;5014740;28;20504;-66
2022/05/10 00:50:04;;;;;;;1.98;1.00;;;;;;;11.07;37.18;99696.41;4998058;28;20503;-65
2022/05/10 00:52:42;;;;;;;1.73;1.08;;;;;;;11.02;37.02;99707.50;5031786;28;20049;-66
2022/05/10 00:55:40;;;;;;;3.65;1.00;;;;;;;11.08;36.99;99701.53;5014231;28;20045;-67
2022/05/10 00:58:42;;;;;;;4.38;0.90;;;;;;;11.06;36.98;99700.88;4987750;28;20131;-66
2022/05/10 01:01:09;;;;;;;2.10;0.97;;;;;;;10.86;37.33;99690.63;5031925;28;20049;-67
2022/05/10 01:03:39;;;;;;;1.67;0.90;;;;;;;10.94;37.10;99698.63;5014400;28;20143;-65
2022/05/10 01:06:25;;;;;;;1.75;1.08;;;;;;;11.03;36.99;99687.06;5030717;28;20145;-65
2022/05/10 01:09:03;;;;;;;3.63;0.90;;;;;;;10.81;36.98;99655.75;4997404;28;20615;-66
2022/05/10 01:11:44;;;;;;;1.75;1.00;;;;;;;10.98;37.28;99686.72;5013967;28;20072;-65
2022/05/10 01:14:32;;;;;;;;;;;;;;;11.01;36.81;99691.72;5014258;28;20504;-66
2022/05/10 01:16:58;;;;;;;3.10;1.08;;;;;;;10.68;37.10;99688.06;5025751;28;20016;-65
2022/05/10 01:19:24;;;;;;;6.57;1.50;;;;;;;10.74;37.22;99705.16;4981299;28;20124;-66
2022/05/10 01:22:17;;;;;;;1.50;1.08;;;;;;;10.64;37.21;99660.13;5031381;28;20579;-66
2022/05/10 01:25:17;;;;;;;2.10;1.10;;;;;;;10.86;37.12;99682.66;5030386;28;20045;-66
2022/05/10 01:28:17;;;;;;;1.37;1.00;;;;;;;10.88;37.29;99683.34;5029879;28;20206;-66
2022/05/10 01:30:43;;;;;;;1.63;1.27;;;;;;;10.58;37.50;99676.69;5030926;28;20045;-67
2022/05/10 01:33:30;;;;;;;2.17;1.00;;;;;;;10.89;37.18;99679.69;5013893;28;20132;-66
2022/05/10 01:35:58;;;;;;;2.97;1.30;;;;;;;10.66;37.22;99686.53;4997327;28;20086;-66
2022/05/10 01:38:43;;;;;;;1.07;0.97;;;;;;;10.89;37.29;99685.00;5013504;28;20049;-66
2022/05/10 01:41:23;;;;;;;2.13;1.33;;;;;;;10.81;37.33;99688.44;5030332;28;20057;-66
2022/05/10 01:44:06;;;;;;;1.13;1.10;;;;;;;10.79;37.31;99679.81;5031214;28;20057;-65
2022/05/10 01:46:32;;;;;;;1.63;1.03;;;;;;;10.47;37.13;99652.25;5031574;28;20057;-66
2022/05/10 01:49:12;;;;;;;1.48;1.25;;;;;;;10.84;37.30;99685.47;5031475;28;20455;-67
2022/05/10 01:51:55;;;;;;;2.33;1.10;;;;;;;10.82;37.61;99676.84;5030905;28;20068;-66
2022/05/10 01:54:39;;;;;;;2.70;1.10;;;;;;;10.92;37.19;99682.84;5030755;28;20041;-66
2022/05/10 01:57:09;;;;;;;4.07;1.20;;;;;;;10.84;37.49;99671.38;5030596;28;20041;-66
2022/05/10 01:59:37;;;;;;;3.17;1.10;;;;;;;10.69;37.30;99680.91;5013199;28;20119;-66
2022/05/10 02:02:03;;;;;;;2.27;1.10;;;;;;;10.78;37.38;99675.47;5029486;28;20125;-66
2022/05/10 02:04:33;;;;;;;1.42;1.00;;;;;;;10.83;37.21;99659.06;5013126;28;20756;-67
2022/05/10 02:07:13;;;;;;;2.50;1.80;;;;;;;10.95;37.13;99671.06;5013715;28;20049;-66
2022/05/10 02:09:49;;;;;;;3.40;1.25;;;;;;;11.00;37.16;99668.78;5013182;28;20047;-66
2022/05/10 02:12:29;;;;;;;8.65;1.60;;;;;;;10.90;37.28;99658.25;4997149;28;20057;-66
2022/05/10 02:15:01;;;;;;;1.67;1.10;;;;;;;10.94;37.08;99667.59;5013049;28;20132;-66
2022/05/10 02:17:43;;;;;;;4.03;1.20;;;;;;;11.04;36.88;99659.50;4996969;28;20132;-65
2022/05/10 02:20:30;;;;;;;1.83;1.00;;;;;;;11.07;36.97;99664.50;5013280;28;20479;-66
2022/05/10 02:22:59;;;;;;;2.67;1.17;;;;;;;10.98;37.18;99654.84;5013228;28;20165;-66
2022/05/10 02:25:37;;;;;;;2.97;1.33;;;;;;;11.05;36.92;99655.84;4980250;28;20160;-66
2022/05/10 02:28:09;;;;;;;4.20;1.08;;;;;;;10.97;36.76;99645.16;5012442;28;20045;-66
2022/05/10 02:30:36;;;;;;;2.97;1.10;;;;;;;10.89;37.07;99661.91;4995926;28;20508;-66
2022/05/10 02:33:08;;;;;;;3.72;1.15;;;;;;;11.06;36.64;99661.00;5012381;28;20171;-66
2022/05/10 02:35:40;;;;;;;2.83;1.10;;;;;;;11.07;36.43;99654.69;5013400;28;20041;-66
2022/05/10 02:38:06;;;;;;;2.63;1.30;;;;;;;10.89;36.24;99659.25;5029487;28;20095;-65
2022/05/10 02:40:33;;;;;;;3.65;1.33;;;;;;;10.96;36.46;99656.81;5030147;28;20048;-66
2022/05/10 02:42:59;;;;;;;2.13;1.30;;;;;;;10.83;36.53;99636.00;5012871;28;20055;-65
2022/05/10 02:45:24;;;;;;;2.80;1.60;;;;;;;10.91;36.29;99649.31;5013120;28;20041;-66
2022/05/10 02:47:50;;;;;;;3.75;1.25;;;;;;;10.93;36.41;99644.66;5016615;28;20049;-66
2022/05/10 02:50:32;;;;;;;2.88;1.10;;;;;;;11.18;35.92;99648.22;5034225;28;20132;-66
2022/05/10 02:52:58;;;;;;;3.00;1.30;;;;;;;10.98;36.00;99644.19;5016414;28;20067;-66
2022/05/10 02:55:31;;;;;;;2.97;1.30;;;;;;;11.01;35.99;99620.78;5016538;28;20045;-66
2022/05/10 02:58:01;;;;;;;1.70;1.00;;;;;;;11.17;35.80;99649.22;5016209;28;20041;-66
2022/05/10 03:00:27;;;;;;;2.72;1.40;;;;;;;11.04;35.71;99619.63;5000173;28;20068;-66
2022/05/10 03:02:56;;;;;;;3.72;1.08;;;;;;;11.30;35.49;99646.97;5016168;28;20044;-66
2022/05/10 03:05:22;;;;;;;2.75;1.33;;;;;;;11.13;35.36;99647.91;5032683;28;20095;-66
2022/05/10 03:07:48;;;;;;;1.85;1.10;;;;;;;11.18;35.17;99632.28;5033841;28;20405;-66
2022/05/10 03:10:13;;;;;;;3.13;1.15;;;;;;;11.30;35.06;99645.13;5034064;28;20041;-66
2022/05/10 03:12:39;;;;;;;4.07;1.15;;;;;;;11.36;34.89;99646.31;4999632;28;20049;-66
2022/05/10 03:15:06;;;;;;;2.20;1.10;;;;;;;11.53;34.56;99648.00;5016261;28;20088;-65
2022/05/10 03:17:32;;;;;;;5.03;1.40;;;;;;;11.49;34.66;99654.63;5032232;28;20044;-66
2022/05/10 03:19:57;;;;;;;4.20;1.40;;;;;;;11.32;34.39;99621.03;5033660;28;20045;-66
2022/05/10 03:22:23;;;;;;;2.42;1.25;;;;;;;11.36;34.43;99615.22;5033953;28;20045;-66
2022/05/10 03:24:49;;;;;;;2.08;1.27;;;;;;;11.61;34.24;99648.84;5033859;28;20466;-66
2022/05/10 03:27:16;;;;;;;3.60;1.20;;;;;;;11.69;34.18;99645.38;5016363;28;20037;-66
2022/05/10 03:29:42;;;;;;;2.60;1.35;;;;;;;11.69;33.98;99656.03;5015992;28;20045;-66
2022/05/10 03:32:08;;;;;;;1.30;1.00;;;;;;;11.77;33.85;99642.75;5015602;28;20041;-66
2022/05/10 03:37:18;;;;;;;2.72;1.17;;;;;;;11.85;33.78;99648.06;5033314;28;20541;-66
2022/05/10 03:39:44;;;;;;;3.10;1.20;;;;;;;11.87;33.57;99651.38;5015848;28;20071;-67
2022/05/10 03:42:10;;;;;;;1.73;1.10;;;;;;;12.00;33.47;99641.09;5015437;28;20029;-66
2022/05/10 03:44:36;;;;;;;4.15;1.30;;;;;;;12.01;33.44;99640.06;5015682;28;20077;-66
2022/05/10 03:47:04;;;;;;;1.55;0.90;;;;;;;12.11;33.17;99645.22;5015528;28;20060;-65
2022/05/10 03:49:30;;;;;;;4.88;1.38;;;;;;;11.84;33.21;99601.16;5015364;28;20049;-66
2022/05/10 03:51:56;;;;;;;3.35;1.38;;;;;;;12.06;33.00;99644.88;5015286;28;20517;-67
2022/05/10 03:54:23;;;;;;;5.10;1.15;;;;;;;12.18;33.01;99631.06;5033014;28;20080;-67
2022/05/10 03:56:50;;;;;;;3.33;1.10;;;;;;;12.17;33.03;99640.06;5015098;28;20049;-66
2022/05/10 03:59:17;;;;;;;2.05;1.02;;;;;;;12.34;32.74;99636.38;5032826;28;20049;-66
2022/05/10 04:01:44;;;;;;;3.92;1.20;;;;;;;12.33;32.52;99632.03;5015518;28;20037;-66
2022/05/10 04:04:14;;;;;;;1.63;1.00;;;;;;;12.35;32.43;99631.88;5033173;28;20045;-65
2022/05/10 04:06:40;;;;;;;2.42;1.10;;;;;;;12.37;32.66;99625.41;5032767;28;20050;-65
2022/05/10 04:09:06;;;;;;;1.95;0.93;;;;;;;12.34;31.80;99630.22;5032777;28;20046;-66
2022/05/10 04:11:34;;;;;;;2.65;1.02;;;;;;;12.50;31.81;99632.88;5032793;28;20048;-65
2022/05/10 04:14:00;;;;;;;4.35;1.00;;;;;;;12.55;32.02;99628.69;4998888;28;20103;-66
2022/05/10 04:16:26;;;;;;;2.03;1.48;;;;;;;12.57;31.65;99618.69;5015157;28;20425;-65
2022/05/10 04:18:52;;;;;;;2.85;1.00;;;;;;;12.61;31.33;99622.66;5014785;28;20057;-66
2022/05/10 04:21:17;;;;;;;1.20;1.00;;;;;;;12.67;31.47;99616.66;5015145;28;20038;-66
2022/05/10 04:23:43;;;;;;;1.92;1.15;;;;;;;12.63;31.22;99587.84;5014811;28;20088;-66
2022/05/10 04:26:11;;;;;;;6.38;1.30;;;;;;;12.98;31.08;99619.34;5014548;28;20041;-67
2022/05/10 04:28:38;;;;;;;1.08;0.98;;;;;;;13.02;30.80;99615.38;5032604;28;20049;-66
2022/05/10 04:31:04;;;;;;;7.50;1.10;;;;;;;13.01;30.47;99609.22;5032203;28;20076;-66
2022/05/10 04:33:30;;;;;;;1.38;0.90;;;;;;;13.05;30.00;99623.84;5014738;28;20045;-66
2022/05/10 04:35:56;;;;;;;1.65;0.95;;;;;;;13.07;30.16;99621.84;5014558;28;20060;-66
2022/05/10 04:38:22;;;;;;;4.28;0.90;;;;;;;13.14;30.11;99616.66;5032328;28;20097;-66
2022/05/10 04:43:37;;;;;;;3.50;1.00;;;;;;;13.34;29.64;99610.72;5017331;28;20045;-66
2022/05/10 04:46:03;;;;;;;4.32;1.00;;;;;;;13.19;29.48;99585.78;5030593;28;20057;-66
2022/05/10 04:48:28;;;;;;;3.63;1.10;;;;;;;13.45;29.07;99607.63;5030877;28;20099;-66
2022/05/10 04:50:54;;;;;;;1.92;0.90;;;;;;;13.56;28.59;99614.41;5013847;28;20045;-66
2022/05/10 04:53:22;;;;;;;4.03;0.90;;;;;;;13.51;28.34;99606.09;5014144;28;20056;-66
2022/05/10 04:55:50;;;;;;;2.35;1.00;;;;;;;13.52;28.32;99597.91;5014367;28;20405;-66
2022/05/10 04:58:16;;;;;;;1.20;0.88;;;;;;;13.62;28.27;99596.84;5031910;28;20076;-67
2022/05/10 05:00:42;;;;;;;3.22;0.85;;;;;;;13.80;28.04;99602.69;5031685;28;20091;-67
2022/05/10 05:03:07;;;;;;;1.65;0.75;;;;;;;13.90;27.94;99608.63;5031846;28;20048;-66
2022/05/10 05:05:33;;;;;;;3.05;0.90;;;;;;;13.90;27.99;99600.63;5013823;28;20045;-67
2022/05/10 05:07:59;;;;;;;2.25;1.13;;;;;;;14.07;27.89;99607.50;5030574;28;20030;-66
2022/05/10 05:10:24;;;;;;;1.58;0.98;;;;;;;14.14;27.10;99590.56;4980342;28;20049;-67
2022/05/10 05:12:50;;;;;;;3.42;0.93;;;;;;;14.12;26.71;99589.06;5031642;28;20046;-66
2022/05/10 05:15:19;;;;;;;1.50;0.90;;;;;;;14.19;26.67;99566.78;5030324;28;20033;-66
2022/05/10 05:17:44;;;;;;;1.48;1.08;;;;;;;14.42;26.54;99580.09;5013914;28;20576;-67
2022/05/10 05:20:11;;;;;;;2.22;1.10;;;;;;;14.58;26.11;99580.75;5013372;28;20132;-67
2022/05/10 05:22:37;;;;;;;2.80;1.08;;;;;;;14.65;26.40;99580.84;5031187;28;20094;-67
2022/05/10 05:25:04;;;;;;;4.35;1.00;;;;;;;14.71;26.02;99572.09;5031347;28;20042;-66
2022/05/10 05:27:30;;;;;;;3.35;0.90;;;;;;;14.59;25.59;99577.06;4997312;28;20094;-67
2022/05/10 05:29:56;;;;;;;2.38;1.08;;;;;;;14.77;25.43;99577.53;5031115;28;20041;-67
2022/05/10 05:32:26;;;;;;;2.92;1.10;;;;;;;14.92;25.21;99572.97;5013726;28;20049;-67
2022/05/10 05:34:51;;;;;;;8.07;1.00;;;;;;;14.73;25.44;99532.63;5013804;28;20041;-67
2022/05/10 05:37:32;;;;;;;2.05;0.90;;;;;;;14.97;25.20;99553.69;5030872;28;20041;-66
2022/05/10 05:39:59;;;;;;;2.20;0.85;;;;;;;15.08;24.82;99546.00;4999211;28;20067;-67
2022/05/10 05:42:25;;;;;;;4.55;0.80;;;;;;;15.21;24.43;99547.97;4996945;28;20063;-67
2022/05/10 05:44:51;;;;;;;1.17;0.90;;;;;;;15.23;24.39;99505.81;5031025;28;20049;-67
2022/05/10 05:47:17;;;;;;;2.15;0.80;;;;;;;15.59;23.99;99513.81;5013180;28;20042;-67
2022/05/10 05:49:42;;;;;;;2.10;0.50;;;;;;;15.74;23.20;99530.63;4997318;28;20136;-67
2022/05/10 05:52:08;;;;;;;3.53;0.70;;;;;;;15.94;22.60;99531.59;5013422;28;20037;-67
2022/05/10 05:54:34;;;;;;;5.97;0.80;;;;;;;15.99;22.44;99497.03;4996520;28;20563;-66
2022/05/10 05:57:05;;;;;;;1.23;0.63;;;;;;;16.52;22.16;99532.03;5013048;28;20132;-67
2022/05/10 05:59:31;;;;;;;2.50;0.70;;;;;;;16.50;21.95;99501.91;5030770;28;20049;-67
2022/05/10 06:01:57;;;;;;;3.03;0.70;;;;;;;16.81;20.98;99512.97;5046059;28;20126;-66
2022/05/10 06:04:23;;;;;;;2.05;0.82;;;;;;;16.94;20.88;99506.00;4996830;28;20501;-66
2022/05/10 06:06:49;;;;;;;6.57;0.77;;;;;;;17.33;20.64;99525.69;4996694;28;20094;-66
2022/05/10 06:09:14;;;;;;;2.67;0.70;;;;;;;17.68;20.60;99516.47;5012904;28;20168;-66
2022/05/10 06:11:40;;;;;;;4.25;0.85;;;;;;;17.95;20.22;99528.88;5030477;28;20085;-66
2022/05/10 06:14:07;;;;;;;6.45;0.80;;;;;;;18.01;18.87;99519.16;4996396;28;20106;-66
2022/05/10 06:16:32;;;;;;;7.82;0.80;;;;;;;17.82;18.71;99510.06;5012742;28;20053;-66
2022/05/10 06:18:58;;;;;;;4.03;0.70;;;;;;;17.71;18.99;99496.44;5030009;28;20046;-67
2022/05/10 06:21:24;;;;;;;3.13;0.60;;;;;;;17.76;19.12;99480.53;5012436;28;20114;-66
2022/05/10 06:23:50;;;;;;;1.48;0.80;;;;;;;18.06;18.70;99482.56;5012311;28;20481;-66
2022/05/10 06:26:15;;;;;;;1.77;0.70;;;;;;;18.26;18.26;99498.63;5012533;28;20026;-66
2022/05/10 06:28:41;;;;;;;5.72;0.73;;;;;;;18.39;18.09;99501.31;5030293;28;20046;-66
2022/05/10 06:31:09;;;;;;;0.90;0.70;;;;;;;18.64;18.11;99501.44;5030295;28;20041;-67
2022/05/10 06:33:36;;;;;;;1.08;0.80;;;;;;;18.67;17.52;99492.94;5029042;28;20376;-66
2022/05/10 06:36:02;;;;;;;1.85;0.75;;;;;;;18.68;17.73;99481.16;5012717;28;20056;-66
2022/05/10 06:38:31;;;;;;;5.05;0.80;;;;;;;18.97;17.35;99491.38;4996540;28;20049;-66
2022/05/10 06:41:01;;;;;;;2.97;0.60;;;;;;;19.20;17.31;99489.78;5030293;28;20042;-67
2022/05/10 06:43:28;;;;;;;2.47;0.60;;;;;;;18.89;17.06;99476.28;5012532;28;20405;-67
2022/05/10 06:46:01;;;;;;;5.43;0.90;;;;;;;18.81;16.87;99473.84;5012727;28;20501;-66
2022/05/10 06:48:28;;;;;;;1.23;0.80;;;;;;;18.76;16.98;99470.16;5030682;28;20501;-66
2022/05/10 06:50:56;;;;;;;0.95;0.52;;;;;;;19.13;17.29;99482.78;5045817;28;20041;-67
2022/05/10 06:53:24;;;;;;;1.85;0.70;;;;;;;19.35;17.02;99466.09;5012868;28;20053;-66
2022/05/10 06:55:50;;;;;;;1.83;0.60;;;;;;;19.34;16.88;99471.69;5030401;28;20519;-66
2022/05/10 06:58:16;;;;;;;2.10;0.77;;;;;;;19.49;16.78;99480.28;5012602;28;20045;-66
2022/05/10 07:00:42;;;;;;;5.00;0.80;;;;;;;19.65;16.73;99456.31;4996622;28;20475;-67
2022/05/10 07:03:23;;;;;;;3.13;0.80;;;;;;;19.66;16.61;99420.25;5012935;28;20041;-67
2022/05/10 07:05:49;;;;;;;3.90;0.80;;;;;;;19.79;16.21;99454.31;4996738;28;20179;-66
2022/05/10 07:08:15;;;;;;;4.88;0.77;;;;;;;19.48;16.49;99455.22;4980169;28;20073;-66
2022/05/10 07:10:41;;;;;;;2.30;0.77;;;;;;;19.33;16.91;99457.41;5012616;28;20497;-67
2022/05/10 07:13:07;;;;;;;7.05;0.90;;;;;;;19.01;17.35;99447.66;5030187;28;20046;-66
2022/05/10 07:15:33;;;;;;;9.07;0.70;;;;;;;19.40;17.15;99444.72;5029287;28;20037;-66
2022/05/10 07:17:58;;;;;;;2.38;1.00;;;;;;;20.12;16.50;99441.34;5012440;28;20061;-66
2022/05/10 07:20:24;;;;;;;4.72;1.60;;;;;;;21.08;15.90;99439.56;5012735;28;20052;-66
2022/05/10 07:22:50;;;;;;;7.65;0.88;;;;;;;21.66;14.74;99440.50;5030129;28;20072;-66
2022/05/10 07:25:18;;;;;;;1.13;0.75;;;;;;;22.09;14.09;99440.19;5029991;28;20555;-66
2022/05/10 07:27:44;;;;;;;5.18;1.00;;;;;;;22.06;14.17;99429.84;5028927;28;20053;-66
2022/05/10 07:30:14;;;;;;;1.63;0.75;;;;;;;22.11;14.45;99430.75;4995993;28;20041;-66
2022/05/10 07:32:39;;;;;;;5.93;0.90;;;;;;;21.44;15.11;99425.91;4980579;28;20056;-66
2022/05/10 07:35:06;;;;;;;2.85;0.82;;;;;;;20.85;15.31;99426.75;5016129;28;20049;-66
2022/05/10 07:37:35;;;;;;;3.53;0.65;;;;;;;20.45;15.61;99420.25;4983386;28;20386;-66
2022/05/10 07:40:01;;;;;;;5.60;0.90;;;;;;;19.94;15.82;99412.50;5032348;28;20042;-67
2022/05/10 07:42:29;;;;;;;4.10;0.93;;;;;;;19.52;16.31;99412.50;5033444;28;20521;-66
2022/05/10 07:44:55;;;;;;;3.97;0.80;;;;;;;19.07;16.14;99409.09;5015421;28;20041;-66
2022/05/10 07:47:25;;;;;;;5.03;0.82;;;;;;;19.12;16.40;99424.59;5016115;28;20136;-66
2022/05/10 07:49:51;;;;;;;1.90;1.00;;;;;;;19.08;15.95;99416.13;4999680;28;20526;-66
2022/05/10 07:52:16;;;;;;;2.75;0.95;;;;;;;19.36;15.54;99408.50;5031788;28;20045;-66
2022/05/10 07:54:42;;;;;;;2.10;0.80;;;;;;;20.09;15.04;99399.50;5033014;28;20049;-66
2022/05/10 07:57:08;;;;;;;2.67;0.80;;;;;;;20.85;14.12;99402.47;4998949;28;20038;-66
2022/05/10 07:59:36;;;;;;;6.28;0.88;;;;;;;21.89;13.33;99402.69;5033014;28;20041;-66
2022/05/10 08:02:02;;;;;;;1.38;0.82;;;;;;;22.25;13.42;99415.91;5015713;28;20056;-68
2022/05/10 08:04:28;;;;;;;13.60;0.98;;;;;;;22.30;13.04;99405.22;4982990;28;20056;-66
2022/05/10 08:06:54;;;;;;;2.78;0.70;;;;;;;21.98;13.10;99389.63;5031769;28;20037;-66
2022/05/10 08:09:20;;;;;;;7.82;0.80;;;;;;;21.67;13.15;99399.72;5015376;28;20147;-66
2022/05/10 08:11:46;;;;;;;7.15;0.90;;;;;;;21.43;13.51;99391.84;5015006;28;20060;-67
2022/05/10 08:14:13;;;;;;;6.53;0.90;;;;;;;21.13;13.84;99386.50;5032677;28;20502;-66
2022/05/10 08:16:39;;;;;;;2.30;0.70;;;;;;;20.62;14.34;99374.59;4998854;28;20045;-66
2022/05/10 08:19:05;;;;;;;4.80;1.00;;;;;;;20.02;14.87;99387.09;4982426;28;20103;-66
2022/05/10 08:21:31;;;;;;;3.55;0.80;;;;;;;19.82;15.13;99379.25;5015237;28;20041;-66
2022/05/10 08:23:56;;;;;;;7.68;0.98;;;;;;;19.88;15.32;99385.63;5032818;28;20093;-66
2022/05/10 08:26:23;;;;;;;6.38;1.73;;;;;;;19.93;14.99;99362.34;5014833;28;20041;-66
2022/05/10 08:28:49;;;;;;;4.20;1.02;;;;;;;19.51;15.01;99382.03;5014696;28;20572;-67
2022/05/10 08:31:15;;;;;;;2.20;1.00;;;;;;;19.57;14.92;99372.25;5014529;28;20141;-67
2022/05/10 08:33:42;;;;;;;4.78;0.80;;;;;;;19.65;14.91;99343.16;5031231;28;20076;-66
2022/05/10 08:36:09;;;;;;;4.43;0.70;;;;;;;19.93;14.43;99364.19;5014630;28;20088;-66
2022/05/10 08:38:35;;;;;;;2.65;0.88;;;;;;;20.02;14.25;99352.91;5014606;28;20136;-66
2022/05/10 08:41:19;;;;;;;2.78;0.80;;;;;;;20.20;14.07;99356.66;4998603;28;20559;-66
2022/05/10 08:43:59;;;;;;;2.40;0.60;;;;;;;19.87;14.21;99347.06;4998221;28;20044;-66
2022/05/10 08:46:30;;;;;;;15.82;1.73;;;;;;;19.30;14.61;99320.50;5014453;28;20159;-66
2022/05/10 08:49:20;;;;;;;2.85;0.73;;;;;;;18.89;14.68;99336.34;5014174;28;20122;-66
2022/05/10 08:51:47;;;;;;;3.08;0.82;;;;;;;18.71;14.91;99338.16;5030616;28;20051;-66
2022/05/10 08:54:13;;;;;;;3.38;0.70;;;;;;;18.53;14.52;99333.47;5030866;28;20504;-66
2022/05/10 08:57:25;;;;;;;3.38;0.70;;;;;;;18.61;14.68;99322.47;5014322;28;20045;-66
2022/05/10 08:59:57;;;;;;;5.05;0.80;;;;;;;18.48;14.92;99320.69;4999430;28;20045;-66
2022/05/10 09:02:37;;;;;;;7.78;0.75;;;;;;;18.33;15.22;99311.22;5031274;28;20053;-66
2022/05/10 09:05:38;;;;;;;12.75;0.90;;;;;;;18.40;15.48;99331.69;5014568;28;20045;-70
2022/05/10 09:08:55;;;;;;;4.22;0.73;;;;;;;18.35;15.65;99318.06;4981766;28;20047;-66
2022/05/10 09:11:21;;;;;;;2.90;0.93;;;;;;;18.33;15.92;99304.00;4981586;28;20111;-66
2022/05/10 09:13:47;;;;;;;5.97;0.90;;;;;;;18.25;16.18;99322.25;4997587;28;20045;-66
2022/05/10 09:16:14;;;;;;;6.32;0.70;;;;;;;18.34;15.84;99312.91;5013713;28;20038;-66
2022/05/10 09:18:48;;;;;;;3.30;0.90;;;;;;;18.48;15.20;99318.00;5031247;28;20057;-66
2022/05/10 09:21:16;;;;;;;4.68;1.17;;;;;;;18.92;14.80;99318.94;5032024;28;20057;-66
2022/05/10 09:24:00;;;;;;;9.38;1.30;;;;;;;18.84;14.02;99300.34;5031536;28;20053;-66
2022/05/10 09:26:35;;;;;;;12.77;2.25;;;;;;;18.91;14.00;99315.44;5013749;28;20045;-66
2022/05/10 09:29:26;;;;;;;10.65;0.88;;;;;;;19.02;13.95;99314.72;5030216;28;20069;-66
2022/05/10 09:34:45;;;;;;;3.00;0.75;;;;;;;18.36;14.21;99310.78;5031505;28;20106;-66
2022/05/10 09:37:24;;;;;;;5.45;1.65;;;;;;;18.18;14.46;99330.34;4982282;28;20469;-66
2022/05/10 09:40:06;;;;;;;1.70;0.90;;;;;;;17.98;14.68;99328.75;5029807;28;20550;-66
2022/05/10 09:42:40;;;;;;;2.70;0.85;;;;;;;17.81;14.96;99328.41;5013704;28;20057;-66
2022/05/10 09:45:21;;;;;;;2.72;1.08;;;;;;;17.52;15.15;99299.38;5013653;28;20045;-66
2022/05/10 09:48:15;;;;;;;5.50;1.08;;;;;;;17.46;15.44;99283.28;4996800;28;20052;-66
2022/05/10 09:50:44;;;;;;;5.65;1.25;;;;;;;17.47;15.78;99326.03;5013262;28;20417;-65
2022/05/10 09:53:22;;;;;;;5.28;1.15;;;;;;;17.45;15.66;99328.09;4996773;28;20488;-66
2022/05/10 09:56:31;;;;;;;3.05;1.23;;;;;;;17.57;15.79;99328.28;5030410;28;20111;-66
2022/05/10 09:59:05;;;;;;;5.95;1.10;;;;;;;17.45;16.02;99308.47;5029036;28;20598;-66
2022/05/10 10:01:43;;;;;;;5.57;1.25;;;;;;;17.43;16.21;99348.94;4997205;28;20045;-67
2022/05/10 10:04:19;;;;;;;3.22;0.77;;;;;;;17.12;16.53;99292.38;5012238;28;20413;-68
2022/05/10 10:06:46;;;;;;;8.38;1.15;;;;;;;16.99;16.69;99311.16;4996867;28;20045;-68
2022/05/10 10:09:28;;;;;;;5.38;0.93;;;;;;;16.93;17.38;99303.13;4980629;28;20056;-69
2022/05/10 10:11:58;;;;;;;9.77;2.03;;;;;;;16.81;18.14;99322.53;4997552;28;20072;-68
2022/05/10 10:14:38;;;;;;;2.92;1.00;;;;;;;16.84;18.30;99302.50;4996571;28;20053;-70
2022/05/10 10:17:04;;;;;;;16.27;1.25;;;;;;;16.48;18.84;99297.50;5029238;28;20053;-70
2022/05/10 10:19:43;;;;;;;3.22;0.90;;;;;;;16.58;19.24;99326.63;4995924;28;20053;-67
2022/05/10 10:22:19;;;;;;;6.20;0.90;;;;;;;16.37;19.19;99324.91;4996848;28;20137;-70
2022/05/10 10:25:17;;;;;;;4.38;0.95;;;;;;;16.41;19.63;99317.25;5012526;28;20139;-70
2022/05/10 10:27:52;;;;;;;7.88;1.40;;;;;;;16.18;19.66;99331.03;5009593;28;20053;-68
2022/05/10 10:30:24;;;;;;;10.60;1.02;;;;;;;16.10;19.81;99339.22;5015234;28;20519;-68
2022/05/10 10:32:54;;;;;;;3.83;1.02;;;;;;;16.24;20.06;99342.78;5015036;28;20053;-69
2022/05/10 10:35:38;;;;;;;5.65;1.00;;;;;;;16.27;20.00;99321.78;5049144;28;20099;-67
2022/05/10 10:38:24;;;;;;;2.70;0.90;;;;;;;16.51;20.05;99347.22;5014688;28;20052;-67
2022/05/10 10:41:20;;;;;;;3.35;1.05;;;;;;;16.66;20.24;99313.03;5031569;28;20037;-69
2022/05/10 10:44:21;;;;;;;5.78;0.80;;;;;;;16.67;20.04;99334.25;5032888;28;20049;-68
2022/05/10 10:47:24;;;;;;;5.13;0.90;;;;;;;16.62;19.91;99319.84;5009235;28;20497;-67
2022/05/10 10:50:12;;;;;;;4.20;0.80;;;;;;;16.74;20.10;99343.13;4946756;28;20049;-69
2022/05/10 10:52:38;;;;;;;1.95;0.90;;;;;;;16.52;19.96;99344.34;4990250;28;20045;-70
2022/05/10 10:55:05;;;;;;;6.07;1.17;;;;;;;16.32;20.46;99348.81;4997262;28;20041;-71
2022/05/10 10:57:37;;;;;;;7.88;0.90;;;;;;;16.20;20.59;99341.53;4996966;28;20098;-68
2022/05/10 11:00:19;;;;;;;2.53;0.90;;;;;;;16.21;20.37;99335.97;5046098;28;20429;-68
2022/05/10 11:03:15;;;;;;;2.78;0.90;;;;;;;16.22;20.51;99334.94;5012678;28;20047;-71
2022/05/10 11:05:55;;;;;;;2.35;0.82;;;;;;;16.06;20.34;99321.91;5011951;28;20037;-73
2022/05/10 11:08:37;;;;;;;5.20;1.33;;;;;;;16.07;20.65;99317.38;5031143;28;20037;-70
2022/05/10 11:11:38;;;;;;;6.55;1.00;;;;;;;16.21;20.43;99340.50;5042648;28;20056;-70
2022/05/10 11:14:11;;;;;;;3.15;1.15;;;;;;;16.20;20.44;99342.38;5025906;28;20037;-70
2022/05/10 11:16:53;;;;;;;3.00;0.90;;;;;;;16.23;21.11;99325.88;5030840;28;20052;-69
2022/05/10 11:19:44;;;;;;;3.55;1.10;;;;;;;16.33;20.64;99355.81;5017124;28;20136;-71
2022/05/10 11:22:47;;;;;;;11.98;1.60;;;;;;;16.42;20.21;99359.16;5027195;28;20037;-69
2022/05/10 11:25:23;;;;;;;6.55;1.25;;;;;;;16.40;20.31;99363.88;5010308;28;20049;-69
2022/05/10 11:28:34;;;;;;;3.40;1.10;;;;;;;16.43;20.93;99352.75;5025863;28;20152;-69
2022/05/10 11:31:12;;;;;;;3.22;1.00;;;;;;;16.34;21.09;99352.13;5024672;28;20642;-71
2022/05/10 11:33:59;;;;;;;3.80;1.23;;;;;;;16.54;24.10;99374.44;5026803;28;20064;-70
2022/05/10 11:36:44;;;;;;;1.20;0.70;;;;;;;16.26;25.57;99383.59;5018648;28;20168;-70
2022/05/10 11:39:34;;;;;;;6.47;1.00;;;;;;;16.19;26.47;99388.13;5011851;28;20068;-69
2022/05/10 11:42:06;;;;;;;3.42;1.10;;;;;;;15.68;26.57;99357.38;5010009;28;20135;-69
2022/05/10 11:44:44;;;;;;;1.05;0.93;;;;;;;15.43;28.39;99394.47;4993512;28;20042;-69
2022/05/10 11:47:34;;;;;;;5.18;0.90;;;;;;;15.28;29.32;99386.50;4993873;28;20064;-70
2022/05/10 11:50:06;;;;;;;2.47;0.98;;;;;;;15.09;30.33;99405.06;5011813;28;20493;-69
2022/05/10 11:52:50;;;;;;;2.65;0.80;;;;;;;15.06;30.65;99419.66;5029330;28;20049;-69
2022/05/10 11:55:36;;;;;;;7.32;1.13;;;;;;;14.96;30.96;99416.47;5000884;28;20065;-69
2022/05/10 11:58:07;;;;;;;5.03;1.15;;;;;;;14.86;31.84;99417.78;5030931;28;20053;-72
2022/05/10 12:00:33;;;;;;;;;;;;;;;14.91;32.08;99423.41;4994847;28;20053;-70
2022/05/10 12:03:01;;;;;;;3.40;1.00;;;;;;;14.68;32.62;99410.19;5012733;28;19921;-69
2022/05/10 12:05:29;;;;;;;6.93;1.00;;;;;;;14.50;32.73;99417.00;4995964;28;20497;-70
2022/05/10 12:08:01;;;;;;;2.38;0.93;;;;;;;14.46;32.70;99415.72;4995870;28;20460;-71